createdAt,value
2017-06-30T00:02:12.138Z,15.90
2017-06-30T00:04:40.546Z,15.90
2017-06-30T00:07:08.817Z,15.90
2017-06-30T00:09:37.073Z,15.80
2017-06-30T00:12:05.376Z,15.80
2017-06-30T00:14:33.642Z,15.80
2017-06-30T00:17:01.985Z,15.80
2017-06-30T00:19:30.306Z,15.80
2017-06-30T00:21:58.590Z,15.80
2017-06-30T00:24:26.868Z,15.80
2017-06-30T00:26:55.123Z,15.70
2017-06-30T00:29:23.397Z,15.70
2017-06-30T00:31:51.783Z,15.70
2017-06-30T00:34:20.053Z,15.60
2017-06-30T00:36:48.339Z,15.60
2017-06-30T00:39:16.618Z,15.60
2017-06-30T00:41:44.897Z,15.60
2017-06-30T00:44:13.171Z,15.60
2017-06-30T00:46:41.431Z,15.50
2017-06-30T00:49:09.723Z,15.50
2017-06-30T00:51:38.015Z,15.50
2017-06-30T00:54:06.270Z,15.50
2017-06-30T00:56:34.582Z,15.50
2017-06-30T00:59:02.844Z,15.50
2017-06-30T01:01:31.122Z,15.50
2017-06-30T01:03:59.482Z,15.50
2017-06-30T01:06:27.743Z,15.50
2017-06-30T01:08:56.038Z,15.50
2017-06-30T01:11:24.314Z,15.50
2017-06-30T01:13:52.582Z,15.50
2017-06-30T01:16:20.867Z,15.50
2017-06-30T01:18:49.121Z,15.50
2017-06-30T01:21:17.449Z,15.50
2017-06-30T01:23:45.822Z,15.50
2017-06-30T01:26:14.101Z,15.50
2017-06-30T01:28:42.365Z,15.60
2017-06-30T01:31:10.629Z,15.50
2017-06-30T01:33:39.037Z,15.50
2017-06-30T01:36:07.287Z,15.50
2017-06-30T01:38:35.545Z,15.60
2017-06-30T01:41:03.842Z,15.60
2017-06-30T01:43:32.238Z,15.60
2017-06-30T01:46:00.510Z,15.70
2017-06-30T01:48:28.779Z,15.60
2017-06-30T01:50:57.152Z,15.70
2017-06-30T01:53:25.416Z,15.60
2017-06-30T01:55:53.723Z,15.60
2017-06-30T01:58:22.107Z,15.70
2017-06-30T02:00:50.465Z,15.70
2017-06-30T02:03:18.752Z,15.60
2017-06-30T02:05:47.015Z,15.60
2017-06-30T02:08:15.409Z,15.70
2017-06-30T02:10:43.667Z,15.60
2017-06-30T02:13:11.981Z,15.60
2017-06-30T02:15:40.352Z,15.60
2017-06-30T02:18:08.599Z,15.60
2017-06-30T02:20:36.881Z,15.60
2017-06-30T02:23:05.134Z,15.70
2017-06-30T02:25:33.416Z,15.60
2017-06-30T02:28:01.719Z,15.70
2017-06-30T02:30:29.976Z,15.70
2017-06-30T02:32:58.347Z,15.70
2017-06-30T02:35:26.611Z,15.60
2017-06-30T02:37:54.904Z,15.60
2017-06-30T02:40:23.288Z,15.60
2017-06-30T02:42:51.560Z,15.60
2017-06-30T02:45:19.848Z,15.60
2017-06-30T02:47:48.121Z,15.60
2017-06-30T02:50:16.374Z,15.60
2017-06-30T02:52:44.771Z,15.60
2017-06-30T02:55:13.028Z,15.70
2017-06-30T02:57:41.320Z,15.70
2017-06-30T03:00:09.588Z,15.70
2017-06-30T03:02:38.598Z,15.70
2017-06-30T03:05:06.909Z,15.70
2017-06-30T03:07:35.159Z,15.70
2017-06-30T03:10:03.479Z,15.70
2017-06-30T03:12:31.740Z,15.70
2017-06-30T03:15:00.135Z,15.80
2017-06-30T03:17:28.396Z,15.80
2017-06-30T03:19:56.784Z,15.90
2017-06-30T03:22:25.068Z,15.90
2017-06-30T03:24:53.351Z,15.90
2017-06-30T03:27:21.638Z,15.90
2017-06-30T03:29:50.672Z,16.00
2017-06-30T03:32:18.930Z,15.90
2017-06-30T03:34:47.257Z,16.00
2017-06-30T03:37:15.564Z,16.00
2017-06-30T03:39:43.916Z,16.00
2017-06-30T03:42:12.190Z,16.00
2017-06-30T03:44:40.451Z,16.00
2017-06-30T03:47:08.719Z,16.00
2017-06-30T03:49:36.984Z,15.90
2017-06-30T03:52:05.293Z,15.90
2017-06-30T03:54:33.558Z,15.90
2017-06-30T03:57:01.818Z,16.00
2017-06-30T03:59:30.130Z,15.90
2017-06-30T04:01:58.404Z,15.90
2017-06-30T04:04:26.700Z,15.90
2017-06-30T04:06:54.964Z,15.90
2017-06-30T04:09:23.260Z,15.90
2017-06-30T04:11:51.531Z,15.90
2017-06-30T04:14:19.786Z,16.00
2017-06-30T04:16:48.071Z,16.00
2017-06-30T04:19:16.348Z,15.90
2017-06-30T04:21:44.730Z,15.90
2017-06-30T04:24:13.004Z,15.80
2017-06-30T04:26:41.276Z,15.90
2017-06-30T04:29:09.661Z,15.80
2017-06-30T04:31:37.940Z,15.80
2017-06-30T04:34:06.213Z,15.80
2017-06-30T04:36:34.473Z,15.80
2017-06-30T04:39:02.772Z,15.80
2017-06-30T04:41:31.023Z,15.80
2017-06-30T04:43:59.346Z,15.70
2017-06-30T04:46:27.702Z,15.70
2017-06-30T04:48:55.992Z,15.70
2017-06-30T04:51:24.408Z,15.70
2017-06-30T04:53:52.709Z,15.70
2017-06-30T04:56:21.854Z,15.70
2017-06-30T04:58:50.134Z,15.60
2017-06-30T05:01:18.375Z,15.60
2017-06-30T05:03:46.654Z,15.60
2017-06-30T05:06:14.920Z,15.60
2017-06-30T05:08:43.237Z,15.60
2017-06-30T05:11:11.509Z,15.60
2017-06-30T05:13:39.773Z,15.60
2017-06-30T05:16:08.077Z,15.50
2017-06-30T05:18:36.324Z,15.50
2017-06-30T05:21:04.667Z,15.60
2017-06-30T05:23:33.723Z,15.50
2017-06-30T05:26:02.022Z,15.50
2017-06-30T05:28:30.287Z,15.50
2017-06-30T05:30:58.654Z,15.50
2017-06-30T05:33:26.941Z,15.50
2017-06-30T05:35:55.191Z,15.50
2017-06-30T05:38:23.815Z,15.50
2017-06-30T05:40:52.177Z,15.50
2017-06-30T05:43:20.443Z,15.50
2017-06-30T05:45:48.726Z,15.50
2017-06-30T05:48:16.986Z,15.50
2017-06-30T05:50:45.395Z,15.50
2017-06-30T05:53:13.650Z,15.50
2017-06-30T05:55:41.925Z,15.50
2017-06-30T05:58:10.195Z,15.40
2017-06-30T06:00:38.493Z,15.40
2017-06-30T06:03:06.883Z,15.40
2017-06-30T06:05:35.264Z,15.40
2017-06-30T06:08:03.521Z,15.40
2017-06-30T06:10:31.802Z,15.50
2017-06-30T06:13:00.096Z,15.50
2017-06-30T06:15:28.476Z,15.50
2017-06-30T06:17:56.772Z,15.60
2017-06-30T06:20:25.943Z,15.60
2017-06-30T06:22:54.196Z,15.60
2017-06-30T06:25:22.494Z,15.60
2017-06-30T06:27:50.873Z,15.60
2017-06-30T06:30:19.136Z,15.60
2017-06-30T06:32:47.452Z,15.70
2017-06-30T06:35:16.474Z,15.60
2017-06-30T06:37:44.738Z,15.60
2017-06-30T06:40:13.770Z,15.60
2017-06-30T06:42:42.077Z,15.60
2017-06-30T06:45:10.349Z,15.60
2017-06-30T06:47:38.701Z,15.60
2017-06-30T06:50:07.002Z,15.60
2017-06-30T06:52:35.271Z,15.70
2017-06-30T06:55:03.572Z,15.60
2017-06-30T06:57:32.595Z,15.60
2017-06-30T07:00:00.918Z,15.60
2017-06-30T07:02:29.209Z,15.60
2017-06-30T07:04:57.509Z,15.60
2017-06-30T07:07:25.868Z,15.60
2017-06-30T07:09:54.247Z,15.60
2017-06-30T07:12:22.532Z,15.60
2017-06-30T07:14:50.912Z,15.60
2017-06-30T07:17:19.162Z,15.60
2017-06-30T07:19:47.455Z,15.50
2017-06-30T07:22:15.721Z,15.50
2017-06-30T07:24:43.991Z,15.50
2017-06-30T07:27:12.269Z,15.40
2017-06-30T07:29:40.769Z,15.50
2017-06-30T07:32:09.016Z,15.40
2017-06-30T07:34:37.329Z,15.50
2017-06-30T07:37:05.686Z,15.50
2017-06-30T07:39:33.963Z,15.50
2017-06-30T07:42:02.253Z,15.50
2017-06-30T07:44:30.517Z,15.50
2017-06-30T07:46:58.783Z,15.40
2017-06-30T07:49:27.261Z,15.50
2017-06-30T07:51:55.513Z,15.40
2017-06-30T07:54:23.794Z,15.40
2017-06-30T07:56:52.067Z,15.40
2017-06-30T07:59:20.367Z,15.40
2017-06-30T08:01:48.611Z,15.40
2017-06-30T08:04:16.903Z,15.50
2017-06-30T08:06:45.211Z,15.50
2017-06-30T08:09:13.504Z,15.60
2017-06-30T08:11:42.671Z,15.70
2017-06-30T08:14:10.948Z,15.70
2017-06-30T08:16:39.332Z,15.80
2017-06-30T08:19:07.642Z,15.70
2017-06-30T08:21:36.693Z,15.80
2017-06-30T08:24:04.979Z,15.80
2017-06-30T08:26:33.362Z,15.80
2017-06-30T08:29:01.633Z,15.80
2017-06-30T08:31:30.004Z,15.80
2017-06-30T08:33:58.340Z,15.90
2017-06-30T08:36:26.633Z,16.00
2017-06-30T08:38:55.028Z,16.10
2017-06-30T08:41:24.081Z,16.20
2017-06-30T08:43:52.518Z,16.10
2017-06-30T08:46:20.908Z,16.20
2017-06-30T08:48:49.182Z,16.10
2017-06-30T08:51:17.581Z,16.10
2017-06-30T08:53:46.631Z,16.10
2017-06-30T08:56:14.922Z,16.10
2017-06-30T08:58:43.196Z,16.10
2017-06-30T09:01:11.481Z,16.20
2017-06-30T09:03:39.859Z,16.20
2017-06-30T09:06:08.118Z,16.20
2017-06-30T09:08:36.514Z,16.20
2017-06-30T09:11:04.879Z,16.30
2017-06-30T09:13:33.127Z,16.40
2017-06-30T09:16:01.423Z,16.50
2017-06-30T09:18:29.696Z,16.60
2017-06-30T09:20:58.003Z,16.70
2017-06-30T09:23:27.041Z,16.70
2017-06-30T09:25:55.320Z,16.70
2017-06-30T09:28:23.594Z,16.70
2017-06-30T09:30:51.877Z,16.70
2017-06-30T09:33:20.190Z,16.70
2017-06-30T09:35:48.577Z,16.70
2017-06-30T09:38:17.591Z,16.80
2017-06-30T09:40:46.011Z,16.80
2017-06-30T09:43:14.285Z,16.80
2017-06-30T09:45:42.611Z,16.80
2017-06-30T09:48:10.884Z,16.90
2017-06-30T09:50:39.172Z,17.10
2017-06-30T09:53:07.445Z,17.10
2017-06-30T09:55:35.698Z,17.10
2017-06-30T09:58:03.996Z,17.20
2017-06-30T10:00:32.267Z,17.30
2017-06-30T10:03:00.551Z,17.30
2017-06-30T10:05:28.826Z,17.30
2017-06-30T10:07:57.103Z,17.40
2017-06-30T10:10:25.426Z,17.30
2017-06-30T10:12:53.702Z,17.30
2017-06-30T10:15:22.101Z,17.30
2017-06-30T10:17:50.370Z,17.20
2017-06-30T10:20:18.644Z,17.30
2017-06-30T10:22:47.009Z,17.40
2017-06-30T10:25:15.302Z,17.70
2017-06-30T10:27:44.359Z,17.70
2017-06-30T10:30:12.632Z,17.70
2017-06-30T10:32:40.940Z,17.80
2017-06-30T10:35:09.242Z,17.80
2017-06-30T10:37:38.403Z,17.80
2017-06-30T10:40:06.679Z,17.80
2017-06-30T10:42:34.966Z,17.90
2017-06-30T10:45:03.345Z,17.80
2017-06-30T10:47:31.623Z,17.90
2017-06-30T10:50:00.019Z,17.90
2017-06-30T10:52:29.107Z,18.00
2017-06-30T10:54:57.382Z,17.90
2017-06-30T10:57:25.668Z,18.00
2017-06-30T10:59:54.698Z,18.00
2017-06-30T11:02:23.003Z,18.00
2017-06-30T11:04:51.305Z,18.00
2017-06-30T11:07:19.684Z,18.00
2017-06-30T11:09:47.988Z,18.10
2017-06-30T11:12:17.042Z,18.40
2017-06-30T11:14:45.346Z,18.40
2017-06-30T11:17:14.393Z,18.70
2017-06-30T11:19:42.704Z,18.70
2017-06-30T11:22:11.104Z,18.70
2017-06-30T11:24:40.142Z,18.60
2017-06-30T11:27:08.435Z,18.60
2017-06-30T11:29:36.709Z,18.70
2017-06-30T11:32:04.978Z,19.10
2017-06-30T11:34:33.288Z,19.30
2017-06-30T11:37:01.550Z,19.40
2017-06-30T11:39:29.854Z,19.50
2017-06-30T11:41:58.121Z,19.60
2017-06-30T11:44:26.382Z,19.60
2017-06-30T11:46:54.778Z,19.60
2017-06-30T11:49:23.054Z,19.40
2017-06-30T11:51:51.431Z,19.40
2017-06-30T11:54:19.695Z,19.40
2017-06-30T11:56:47.968Z,19.50
2017-06-30T11:59:16.266Z,19.50
2017-06-30T12:01:44.645Z,19.60
2017-06-30T12:04:12.939Z,19.70
2017-06-30T12:06:42.005Z,19.70
2017-06-30T12:09:10.314Z,19.70
2017-06-30T12:11:39.375Z,19.90
2017-06-30T12:14:07.648Z,19.90
2017-06-30T12:16:36.041Z,19.90
2017-06-30T12:19:04.316Z,20.00
2017-06-30T12:21:32.613Z,19.90
2017-06-30T12:24:00.926Z,19.90
2017-06-30T12:26:29.197Z,19.90
2017-06-30T12:28:57.470Z,20.00
2017-06-30T12:31:25.767Z,20.00
2017-06-30T12:33:54.830Z,20.50
2017-06-30T12:36:23.101Z,20.40
2017-06-30T12:38:51.482Z,20.70
2017-06-30T12:41:19.792Z,20.60
2017-06-30T12:43:48.152Z,20.70
2017-06-30T12:46:16.434Z,20.80
2017-06-30T12:48:44.792Z,20.80
2017-06-30T12:51:13.053Z,20.90
2017-06-30T12:53:41.452Z,20.90
2017-06-30T12:56:09.731Z,21.10
2017-06-30T12:58:38.048Z,21.50
2017-06-30T13:01:07.086Z,21.90
2017-06-30T13:03:35.384Z,21.90
2017-06-30T13:06:03.695Z,22.10
2017-06-30T13:08:32.055Z,21.90
2017-06-30T13:11:00.413Z,21.70
2017-06-30T13:13:28.675Z,21.70
2017-06-30T13:15:56.969Z,22.00
2017-06-30T13:18:25.244Z,21.80
2017-06-30T13:20:53.628Z,22.20
2017-06-30T13:23:21.936Z,22.40
2017-06-30T13:25:50.966Z,22.00
2017-06-30T13:28:19.281Z,22.00
2017-06-30T13:30:47.661Z,21.90
2017-06-30T13:33:15.956Z,21.60
2017-06-30T13:35:45.000Z,21.30
2017-06-30T13:38:13.291Z,21.30
2017-06-30T13:40:41.681Z,21.10
2017-06-30T13:43:10.066Z,21.10
2017-06-30T13:45:38.328Z,21.10
2017-06-30T13:48:06.609Z,21.00
2017-06-30T13:50:34.870Z,20.90
2017-06-30T13:53:03.271Z,21.00
2017-06-30T13:55:31.536Z,21.00
2017-06-30T13:57:59.934Z,21.10
2017-06-30T14:00:28.187Z,21.10
2017-06-30T14:02:56.452Z,21.00
2017-06-30T14:05:24.732Z,21.00
2017-06-30T14:07:53.067Z,20.80
2017-06-30T14:10:22.233Z,20.70
2017-06-30T14:12:50.614Z,20.60
2017-06-30T14:15:18.885Z,20.60
2017-06-30T14:17:47.289Z,20.40
2017-06-30T14:20:15.650Z,20.00
2017-06-30T14:22:44.132Z,19.40
2017-06-30T14:25:12.401Z,18.90
2017-06-30T14:27:40.683Z,18.60
2017-06-30T14:30:09.165Z,18.30
2017-06-30T14:32:37.433Z,18.20
2017-06-30T14:35:05.816Z,18.00
2017-06-30T14:37:34.100Z,17.80
2017-06-30T14:40:02.376Z,17.70
2017-06-30T14:42:30.673Z,17.60
2017-06-30T14:44:59.766Z,17.40
2017-06-30T14:47:28.812Z,17.20
2017-06-30T14:49:57.113Z,17.20
2017-06-30T14:52:25.506Z,17.10
2017-06-30T14:54:53.881Z,17.10
2017-06-30T14:57:22.144Z,17.10
2017-06-30T14:59:50.509Z,17.00
2017-06-30T15:02:18.790Z,17.00
2017-06-30T15:04:47.295Z,17.00
2017-06-30T15:07:15.546Z,16.90
2017-06-30T15:09:43.860Z,16.90
2017-06-30T15:12:12.148Z,17.00
2017-06-30T15:14:41.223Z,17.10
2017-06-30T15:17:09.526Z,17.10
2017-06-30T15:19:38.568Z,17.30
2017-06-30T15:22:06.854Z,17.20
2017-06-30T15:24:35.359Z,17.20
2017-06-30T15:27:03.632Z,17.20
2017-06-30T15:29:32.014Z,17.30
2017-06-30T15:32:00.285Z,17.30
2017-06-30T15:34:28.584Z,17.40
2017-06-30T15:36:56.940Z,17.50
2017-06-30T15:39:25.333Z,17.50
2017-06-30T15:41:53.600Z,17.60
2017-06-30T15:44:21.880Z,17.60
2017-06-30T15:46:50.154Z,17.60
2017-06-30T15:49:18.435Z,17.60
2017-06-30T15:51:47.504Z,17.50
2017-06-30T15:54:15.876Z,17.50
2017-06-30T15:56:44.137Z,17.50
2017-06-30T15:59:12.425Z,17.60
2017-06-30T16:01:40.715Z,17.90
2017-06-30T16:04:09.101Z,18.10
2017-06-30T16:06:38.122Z,18.30
2017-06-30T16:09:06.443Z,18.30
2017-06-30T16:11:34.733Z,18.10
2017-06-30T16:14:02.999Z,17.90
2017-06-30T16:16:31.401Z,17.80
2017-06-30T16:18:59.664Z,17.80
2017-06-30T16:21:27.939Z,17.50
2017-06-30T16:23:56.314Z,17.30
2017-06-30T16:26:24.583Z,17.20
2017-06-30T16:28:52.848Z,17.00
2017-06-30T16:31:21.153Z,16.80
2017-06-30T16:33:49.456Z,16.70
2017-06-30T16:36:18.624Z,16.50
2017-06-30T16:38:46.891Z,16.50
2017-06-30T16:41:15.173Z,16.40
2017-06-30T16:43:43.479Z,16.40
2017-06-30T16:46:12.534Z,16.50
2017-06-30T16:48:40.926Z,16.50
2017-06-30T16:51:09.190Z,16.50
2017-06-30T16:53:37.446Z,16.60
2017-06-30T16:56:05.716Z,16.50
2017-06-30T16:58:33.978Z,16.40
2017-06-30T17:01:02.267Z,16.30
2017-06-30T17:03:30.538Z,16.00
2017-06-30T17:05:58.825Z,15.80
2017-06-30T17:08:27.083Z,15.70
2017-06-30T17:10:56.242Z,15.40
2017-06-30T17:13:24.621Z,15.40
2017-06-30T17:15:53.004Z,15.30
2017-06-30T17:18:21.280Z,15.20
2017-06-30T17:20:49.648Z,15.10
2017-06-30T17:23:17.931Z,15.10
2017-06-30T17:25:46.192Z,15.00
2017-06-30T17:28:14.457Z,15.00
2017-06-30T17:30:42.758Z,15.00
2017-06-30T17:33:11.028Z,14.90
2017-06-30T17:35:39.425Z,14.90
2017-06-30T17:38:07.686Z,14.90
2017-06-30T17:40:36.062Z,14.90
2017-06-30T17:43:04.351Z,15.00
2017-06-30T17:45:33.404Z,14.90
2017-06-30T17:48:01.673Z,14.90
2017-06-30T17:50:29.974Z,15.00
2017-06-30T17:52:58.243Z,15.00
2017-06-30T17:55:27.323Z,15.10
2017-06-30T17:57:55.604Z,15.10
2017-06-30T18:00:23.902Z,15.20
2017-06-30T18:02:52.603Z,15.10
2017-06-30T18:05:21.670Z,15.10
2017-06-30T18:07:49.936Z,15.10
2017-06-30T18:10:18.224Z,15.10
2017-06-30T18:12:46.496Z,15.10
2017-06-30T18:15:14.900Z,15.20
2017-06-30T18:17:43.167Z,15.20
2017-06-30T18:20:11.600Z,15.20
2017-06-30T18:22:39.873Z,15.30
2017-06-30T18:25:08.212Z,15.30
2017-06-30T18:27:36.478Z,15.30
2017-06-30T18:30:04.817Z,15.40
2017-06-30T18:32:33.082Z,15.40
2017-06-30T18:35:01.365Z,15.50
2017-06-30T18:37:29.649Z,15.40
2017-06-30T18:39:58.696Z,15.50
2017-06-30T18:42:26.976Z,15.40
2017-06-30T18:44:55.292Z,15.40
2017-06-30T18:47:23.666Z,15.40
2017-06-30T18:49:51.936Z,15.30
2017-06-30T18:52:20.313Z,15.20
2017-06-30T18:54:48.553Z,15.20
2017-06-30T18:57:16.831Z,15.10
2017-06-30T18:59:45.142Z,15.00
2017-06-30T19:02:13.425Z,15.00
2017-06-30T19:04:41.675Z,14.80
2017-06-30T19:07:09.965Z,14.70
2017-06-30T19:09:38.251Z,14.50
2017-06-30T19:12:06.528Z,14.40
2017-06-30T19:14:34.821Z,14.30
2017-06-30T19:17:03.101Z,14.20
2017-06-30T19:19:32.123Z,14.20
2017-06-30T19:22:00.439Z,14.10
2017-06-30T19:24:28.701Z,14.20
2017-06-30T19:26:56.965Z,14.10
2017-06-30T19:29:25.250Z,14.10
2017-06-30T19:31:53.512Z,14.10
2017-06-30T19:34:21.795Z,14.20
2017-06-30T19:36:50.220Z,14.30
2017-06-30T19:39:18.594Z,14.40
2017-06-30T19:41:46.856Z,14.50
2017-06-30T19:44:15.123Z,14.50
2017-06-30T19:46:43.448Z,14.60
2017-06-30T19:49:11.816Z,14.70
2017-06-30T19:51:40.189Z,14.80
2017-06-30T19:54:08.450Z,14.80
2017-06-30T19:56:36.785Z,14.80
2017-06-30T19:59:05.043Z,14.80
2017-06-30T20:01:33.440Z,14.80
2017-06-30T20:04:01.712Z,14.80
2017-06-30T20:06:29.998Z,14.80
2017-06-30T20:08:58.351Z,14.90
2017-06-30T20:11:26.626Z,15.00
2017-06-30T20:13:54.917Z,15.00
2017-06-30T20:16:23.193Z,15.00
2017-06-30T20:18:51.461Z,15.00
2017-06-30T20:21:19.873Z,15.00
2017-06-30T20:23:49.999Z,15.00
2017-06-30T20:26:18.501Z,15.00
2017-06-30T20:28:46.766Z,15.10
2017-06-30T20:31:15.935Z,15.20
2017-06-30T20:33:44.201Z,15.20
2017-06-30T20:36:12.470Z,15.20
2017-06-30T20:38:40.729Z,15.30
2017-06-30T20:41:09.026Z,15.30
2017-06-30T20:43:37.326Z,15.40
2017-06-30T20:46:05.706Z,15.50
2017-06-30T20:48:33.982Z,15.50
2017-06-30T20:51:02.250Z,15.50
2017-06-30T20:53:30.537Z,15.50
2017-06-30T20:55:58.799Z,15.50
2017-06-30T20:58:27.176Z,15.50
2017-06-30T21:00:55.532Z,15.50
2017-06-30T21:03:24.093Z,15.50
2017-06-30T21:05:53.109Z,15.50
2017-06-30T21:08:21.384Z,15.50
2017-06-30T21:10:49.704Z,15.40
2017-06-30T21:13:18.077Z,15.40
2017-06-30T21:15:46.338Z,15.50
2017-06-30T21:18:14.790Z,15.50
2017-06-30T21:20:43.109Z,15.50
2017-06-30T21:23:11.374Z,15.50
2017-06-30T21:25:39.686Z,15.50
2017-06-30T21:28:08.715Z,15.50
2017-06-30T21:30:37.057Z,15.50
2017-06-30T21:33:06.104Z,15.60
2017-06-30T21:35:34.391Z,15.50
2017-06-30T21:38:02.689Z,15.60
2017-06-30T21:40:30.943Z,15.60
2017-06-30T21:42:59.349Z,15.50
2017-06-30T21:45:27.615Z,15.50
2017-06-30T21:47:55.898Z,15.50
2017-06-30T21:50:24.176Z,15.60
2017-06-30T21:52:52.558Z,15.60
2017-06-30T21:55:20.836Z,15.60
2017-06-30T21:57:49.219Z,15.60
2017-06-30T22:00:17.487Z,15.60
2017-06-30T22:02:45.769Z,15.60
2017-06-30T22:05:14.044Z,15.60
2017-06-30T22:07:42.319Z,15.60
2017-06-30T22:10:10.589Z,15.60
2017-06-30T22:12:38.985Z,15.60
2017-06-30T22:15:07.284Z,15.60
2017-06-30T22:17:36.359Z,15.60
2017-06-30T22:20:04.730Z,15.60
2017-06-30T22:22:33.008Z,15.70
2017-06-30T22:25:01.289Z,15.70
2017-06-30T22:27:29.655Z,15.70
2017-06-30T22:29:58.056Z,15.70
2017-06-30T22:32:26.441Z,15.70
2017-06-30T22:34:54.811Z,15.70
2017-06-30T22:37:23.162Z,15.70
2017-06-30T22:39:51.440Z,15.70
2017-06-30T22:42:19.814Z,15.70
2017-06-30T22:44:48.103Z,15.60
2017-06-30T22:47:16.428Z,15.60
2017-06-30T22:49:44.714Z,15.60
2017-06-30T22:52:13.099Z,15.60
2017-06-30T22:54:41.390Z,15.60
2017-06-30T22:57:10.469Z,15.60
2017-06-30T22:59:38.847Z,15.60
2017-06-30T23:02:07.222Z,15.60
2017-06-30T23:04:35.467Z,15.60
2017-06-30T23:07:03.762Z,15.70
2017-06-30T23:09:32.031Z,15.70
2017-06-30T23:12:00.381Z,15.70
2017-06-30T23:14:28.695Z,15.80
2017-06-30T23:16:57.104Z,15.80
2017-06-30T23:19:25.455Z,15.80
2017-06-30T23:21:53.850Z,15.80
2017-06-30T23:24:22.131Z,15.80
2017-06-30T23:26:50.443Z,15.80
2017-06-30T23:29:18.707Z,15.80
2017-06-30T23:31:47.764Z,15.90
2017-06-30T23:34:16.057Z,15.80
2017-06-30T23:36:44.421Z,15.90
2017-06-30T23:39:12.800Z,15.90
2017-06-30T23:41:41.082Z,16.00
2017-06-30T23:44:09.339Z,16.00
2017-06-30T23:46:37.739Z,15.90
2017-06-30T23:49:06.127Z,16.00
2017-06-30T23:51:34.527Z,15.90
2017-06-30T23:54:02.873Z,15.90
2017-06-30T23:56:31.139Z,15.90
2017-06-30T23:58:59.429Z,15.80
